Ldhl, Florida
Current Conditions -  °F | °C
As of 10:53 PM on Saturday 25 Oct 2014 (Local Time) from KFXE Reporting Station
Clear Clear  
Wind Chill: 72°   Ceiling: Unl
Heat Index: 72°   Visibility: 10mi
Dew Point: 63°   Wind: 7mph
Humidity: 73%   Direction: 340°NNW
Pressure: 29.94"   Gusts: NA
Location:  26.1819°N, 80.2274°W
Report Text: KFXE 260253Z 34006KT 10SM CLR 22/17 A2994 RMK AO2 SLP142 T02220172 51008
Loading
Personal Weather Stations






























Interactive Weather Map
Tropical Storm Tracking
New forecast layout! Learn more

10-Day Weather Forecast

Advertisements
Track Severe Weather on mobile